createdAt,value
2022-09-01T04:01:08.196Z,101681.44
2022-09-01T04:03:42.519Z,101682.91
2022-09-01T04:06:11.198Z,101687.34
2022-09-01T04:08:39.314Z,101678.72
2022-09-01T04:11:13.798Z,101681.44
2022-09-01T04:13:42.731Z,101679.09
2022-09-01T04:16:53.246Z,101678.06
2022-09-01T04:19:25.775Z,101677.00
2022-09-01T04:21:55.687Z,101674.72
2022-09-01T04:24:27.920Z,101678.31
2022-09-01T04:26:58.622Z,101681.06
2022-09-01T04:29:28.058Z,101679.56
2022-09-01T04:31:56.489Z,101677.84
2022-09-01T04:34:28.023Z,101671.13
2022-09-01T04:36:56.784Z,101672.78
2022-09-01T04:39:25.182Z,101674.88
2022-09-01T04:41:52.818Z,101679.94
2022-09-01T04:44:20.564Z,101673.22
2022-09-01T04:46:50.449Z,101675.94
2022-09-01T04:49:22.302Z,101675.81
2022-09-01T04:51:54.300Z,101687.97
2022-09-01T04:54:23.338Z,101681.25
2022-09-01T04:56:53.931Z,101689.63
2022-09-01T04:59:23.799Z,101686.66
2022-09-01T05:01:54.881Z,101683.72
2022-09-01T05:04:27.323Z,101680.78
2022-09-01T05:06:59.606Z,101683.06
2022-09-01T05:09:28.773Z,101694.19
2022-09-01T05:11:57.881Z,101689.34
2022-09-01T05:14:26.208Z,101693.31
2022-09-01T05:16:58.733Z,101700.88
2022-09-01T05:19:29.117Z,101695.44
2022-09-01T05:21:59.794Z,101692.03
2022-09-01T05:24:30.299Z,101694.97
2022-09-01T05:27:00.409Z,101693.72
2022-09-01T05:29:28.745Z,101695.41
2022-09-01T05:31:57.284Z,101695.78
2022-09-01T05:34:27.353Z,101698.75
2022-09-01T05:36:57.877Z,101691.56
2022-09-01T05:39:27.603Z,101700.97
2022-09-01T05:41:55.968Z,101699.91
2022-09-01T05:44:23.721Z,101713.00
2022-09-01T05:46:52.699Z,101702.22
2022-09-01T05:49:20.413Z,101701.66
2022-09-01T05:51:51.646Z,101701.44
2022-09-01T05:54:23.037Z,101704.00
2022-09-01T05:56:53.425Z,101709.22
2022-09-01T05:59:23.040Z,101707.81
2022-09-01T06:01:53.229Z,101709.09
2022-09-01T06:04:23.276Z,101712.44
2022-09-01T06:07:08.432Z,101700.28
2022-09-01T06:09:39.415Z,101703.25
2022-09-01T06:12:09.130Z,101701.00
2022-09-01T06:14:36.802Z,101701.19
2022-09-01T06:17:04.613Z,101699.25
2022-09-01T06:19:36.873Z,101694.66
2022-09-01T06:22:05.430Z,101695.09
2022-09-01T06:24:33.359Z,101698.28
2022-09-01T06:27:01.117Z,101703.50
2022-09-01T06:29:31.129Z,101702.91
2022-09-01T06:31:58.805Z,101701.00
2022-09-01T06:34:26.370Z,101701.84
2022-09-01T06:36:53.973Z,101696.81
2022-09-01T06:39:21.602Z,101704.16
2022-09-01T06:41:52.669Z,101705.00
2022-09-01T06:44:22.695Z,101704.78
2022-09-01T06:46:52.970Z,101710.03
2022-09-01T06:49:29.565Z,101710.00
2022-09-01T06:51:57.150Z,101716.94
2022-09-01T06:54:25.510Z,101714.41
2022-09-01T06:56:55.241Z,101718.56
2022-09-01T06:59:23.222Z,101713.53
2022-09-01T07:02:01.489Z,101721.31
2022-09-01T07:04:31.409Z,101717.75
2022-09-01T07:07:53.065Z,101722.56
2022-09-01T07:10:05.672Z,101721.53
2022-09-01T07:12:35.215Z,101726.34
2022-09-01T07:17:55.487Z,101725.06
2022-09-01T07:20:27.514Z,101726.91
2022-09-01T07:23:05.544Z,101730.03
2022-09-01T07:26:01.090Z,101721.88
2022-09-01T07:28:36.168Z,101730.94
2022-09-01T07:34:37.631Z,101734.88
2022-09-01T07:39:49.836Z,101736.53
2022-09-01T07:45:25.930Z,101731.41
2022-09-01T07:47:54.711Z,101729.69
2022-09-01T07:50:39.663Z,101723.13
2022-09-01T07:53:09.108Z,101726.66
2022-09-01T07:55:41.176Z,101725.47
2022-09-01T07:58:08.823Z,101726.91
2022-09-01T08:00:37.092Z,101737.19
2022-09-01T08:03:04.762Z,101731.84
2022-09-01T08:05:34.573Z,101741.88
2022-09-01T08:08:02.144Z,101735.03
2022-09-01T08:10:31.857Z,101730.94
2022-09-01T08:12:59.506Z,101732.63
2022-09-01T08:16:06.911Z,101733.63
2022-09-01T08:18:15.612Z,101730.81
2022-09-01T08:20:47.106Z,101726.88
2022-09-01T08:23:16.322Z,101731.63
2022-09-01T08:25:45.078Z,101731.34
2022-09-01T08:28:13.115Z,101733.22
2022-09-01T08:30:42.441Z,101719.38
2022-09-01T08:33:20.371Z,101719.16
2022-09-01T08:35:50.561Z,101720.59
2022-09-01T08:38:18.209Z,101730.13
2022-09-01T08:40:56.419Z,101728.75
2022-09-01T08:43:37.882Z,101725.38
2022-09-01T08:46:11.150Z,101729.72
2022-09-01T08:51:38.189Z,101730.09
2022-09-01T08:54:12.578Z,101723.47
2022-09-01T08:56:41.799Z,101721.22
2022-09-01T08:59:12.061Z,101724.72
2022-09-01T09:01:47.040Z,101721.13
2022-09-01T09:04:31.191Z,101722.47
2022-09-01T09:07:10.567Z,101724.31
2022-09-01T09:09:53.084Z,101725.75
2022-09-01T09:12:49.015Z,101721.59
2022-09-01T09:15:25.444Z,101719.31
2022-09-01T09:18:00.666Z,101724.03
2022-09-01T09:20:28.845Z,101716.41
2022-09-01T09:22:59.767Z,101724.41
2022-09-01T09:25:29.586Z,101700.19
2022-09-01T09:28:04.306Z,101700.53
2022-09-01T09:30:33.030Z,101711.28
2022-09-01T09:35:54.248Z,101709.66
2022-09-01T09:38:28.927Z,101709.16
2022-09-01T09:41:18.465Z,101708.22
2022-09-01T09:43:50.180Z,101700.56
2022-09-01T09:46:27.356Z,101688.97
2022-09-01T09:49:11.413Z,101694.09
2022-09-01T09:51:40.550Z,101692.31
2022-09-01T09:54:20.853Z,101697.34
2022-09-01T09:56:50.623Z,101684.31
2022-09-01T09:59:56.598Z,101685.25
2022-09-01T10:02:27.997Z,101686.69
2022-09-01T10:04:57.119Z,101684.06
2022-09-01T10:07:34.605Z,101671.25
2022-09-01T10:10:06.567Z,101685.63
2022-09-01T10:12:35.890Z,101680.84
2022-09-01T10:15:13.688Z,101674.38
2022-09-01T10:17:43.954Z,101666.72
2022-09-01T10:20:16.926Z,101674.72
2022-09-01T10:22:45.072Z,101671.16
2022-09-01T10:25:18.821Z,101668.41
2022-09-01T10:27:49.889Z,101673.41
2022-09-01T10:30:20.394Z,101661.47
2022-09-01T10:32:55.412Z,101664.91
2022-09-01T10:35:27.153Z,101666.38
2022-09-01T10:37:58.072Z,101663.84
2022-09-01T10:40:43.472Z,101657.59
2022-09-01T10:43:46.023Z,101659.41
2022-09-01T10:46:58.827Z,101659.03
2022-09-01T10:49:59.362Z,101647.22
2022-09-01T10:52:56.592Z,101649.00
2022-09-01T10:55:27.629Z,101651.28
2022-09-01T10:58:09.422Z,101649.22
2022-09-01T11:04:00.745Z,101642.75
2022-09-01T11:07:14.420Z,101634.63
2022-09-01T11:09:44.764Z,101633.28
2022-09-01T11:12:37.788Z,101638.28
2022-09-01T11:15:35.939Z,101638.41
2022-09-01T11:18:08.529Z,101631.06
2022-09-01T11:20:39.406Z,101630.44
2022-09-01T11:23:12.534Z,101633.88
2022-09-01T11:25:43.827Z,101627.16
2022-09-01T11:28:37.387Z,101635.34
2022-09-01T11:31:21.282Z,101634.63
2022-09-01T11:33:57.498Z,101624.94
2022-09-01T11:36:29.962Z,101621.03
2022-09-01T11:39:06.386Z,101622.13
2022-09-01T11:41:45.709Z,101617.84
2022-09-01T11:44:19.438Z,101618.44
2022-09-01T11:46:49.491Z,101623.28
2022-09-01T11:49:30.390Z,101616.56
2022-09-01T11:52:00.139Z,101609.91
2022-09-01T11:54:29.283Z,101601.88
2022-09-01T11:56:56.938Z,101602.00
2022-09-01T11:59:35.762Z,101613.16
2022-09-01T12:02:05.163Z,101620.03
2022-09-01T12:04:36.201Z,101604.28
2022-09-01T12:07:10.680Z,101608.72
2022-09-01T12:09:42.633Z,101613.03
2022-09-01T12:12:30.151Z,101607.00
2022-09-01T12:15:05.543Z,101602.41
2022-09-01T12:17:36.242Z,101600.50
2022-09-01T12:20:29.868Z,101611.25
2022-09-01T12:22:58.949Z,101609.47
2022-09-01T12:25:28.734Z,101611.50
2022-09-01T12:27:56.797Z,101612.34
2022-09-01T12:30:26.824Z,101601.25
2022-09-01T12:35:46.129Z,101604.00
2022-09-01T12:38:24.857Z,101596.75
2022-09-01T12:40:54.642Z,101593.03
2022-09-01T12:43:31.544Z,101590.78
2022-09-01T12:46:02.873Z,101595.13
2022-09-01T12:48:35.125Z,101585.38
2022-09-01T12:51:05.083Z,101594.16
2022-09-01T12:53:36.581Z,101592.44
2022-09-01T12:56:31.061Z,101583.63
2022-09-01T12:59:16.063Z,101582.75
2022-09-01T13:01:45.280Z,101581.81
2022-09-01T13:04:24.765Z,101580.13
2022-09-01T13:06:53.430Z,101575.53
2022-09-01T13:09:21.196Z,101575.78
2022-09-01T13:12:06.287Z,101565.59
2022-09-01T13:14:34.709Z,101562.16
2022-09-01T13:17:02.362Z,101566.31
2022-09-01T13:19:31.292Z,101575.31
2022-09-01T13:21:59.069Z,101565.44
2022-09-01T13:24:30.520Z,101562.44
2022-09-01T13:29:47.363Z,101564.59
2022-09-01T13:32:18.336Z,101562.81
2022-09-01T13:34:50.514Z,101561.59
2022-09-01T13:37:19.593Z,101560.44
2022-09-01T13:39:48.614Z,101555.34
2022-09-01T13:42:16.819Z,101550.84
2022-09-01T13:44:44.666Z,101544.75
2022-09-01T13:47:29.047Z,101545.16
2022-09-01T13:50:09.339Z,101536.59
2022-09-01T13:52:39.021Z,101540.63
2022-09-01T13:55:08.813Z,101541.34
2022-09-01T13:57:37.044Z,101535.44
2022-09-01T14:00:08.149Z,101535.06
2022-09-01T14:02:36.767Z,101544.38
2022-09-01T14:05:06.967Z,101533.81
2022-09-01T14:07:37.387Z,101540.06
2022-09-01T14:10:07.563Z,101541.94
2022-09-01T14:12:35.632Z,101527.00
2022-09-01T14:15:13.576Z,101529.97
2022-09-01T14:17:44.865Z,101514.81
2022-09-01T14:20:18.143Z,101510.97
2022-09-01T14:22:46.356Z,101511.50
2022-09-01T14:25:15.135Z,101498.44
2022-09-01T14:27:44.550Z,101505.25
2022-09-01T14:30:16.239Z,101511.63
2022-09-01T14:32:44.211Z,101513.53
2022-09-01T14:35:12.160Z,101515.03
2022-09-01T14:37:42.011Z,101511.22
2022-09-01T14:40:16.459Z,101513.38
2022-09-01T14:42:49.356Z,101509.25
2022-09-01T14:45:18.809Z,101507.81
2022-09-01T14:47:47.154Z,101496.69
2022-09-01T14:50:19.834Z,101498.75
2022-09-01T14:52:54.308Z,101485.38
2022-09-01T14:55:22.682Z,101503.75
2022-09-01T14:57:52.111Z,101507.69
2022-09-01T15:00:20.141Z,101494.28
2022-09-01T15:02:49.129Z,101503.38
2022-09-01T15:05:17.156Z,101498.06
2022-09-01T15:07:45.061Z,101487.19
2022-09-01T15:10:24.902Z,101487.50
2022-09-01T15:12:55.467Z,101481.09
2022-09-01T15:15:23.940Z,101477.00
2022-09-01T15:17:51.753Z,101475.59
2022-09-01T15:20:37.264Z,101468.97
2022-09-01T15:23:07.667Z,101472.56
2022-09-01T15:25:36.862Z,101464.59
2022-09-01T15:28:05.113Z,101471.53
2022-09-01T15:30:33.179Z,101469.28
2022-09-01T15:33:00.769Z,101461.78
2022-09-01T15:35:29.345Z,101470.63
2022-09-01T15:37:58.122Z,101460.13
2022-09-01T15:40:26.620Z,101467.47
2022-09-01T15:42:56.602Z,101463.03
2022-09-01T15:45:25.364Z,101466.06
2022-09-01T15:47:53.004Z,101474.78
2022-09-01T15:50:23.110Z,101473.66
2022-09-01T15:52:59.476Z,101470.56
2022-09-01T15:55:29.554Z,101464.94
2022-09-01T15:58:00.592Z,101466.63
2022-09-01T16:00:29.710Z,101463.75
2022-09-01T16:03:02.599Z,101461.81
2022-09-01T16:05:31.054Z,101458.28
2022-09-01T16:08:01.203Z,101460.00
2022-09-01T16:10:33.530Z,101457.75
2022-09-01T16:13:05.803Z,101453.66
2022-09-01T16:15:35.057Z,101451.81
2022-09-01T16:18:23.634Z,101447.16
2022-09-01T16:20:59.356Z,101445.47
2022-09-01T16:23:36.411Z,101447.72
2022-09-01T16:26:04.174Z,101437.78
2022-09-01T16:28:36.401Z,101449.59
2022-09-01T16:31:08.810Z,101449.59
2022-09-01T16:36:20.730Z,101438.34
2022-09-01T16:38:51.500Z,101434.44
2022-09-01T16:41:43.048Z,101437.13
2022-09-01T16:44:23.398Z,101427.69
2022-09-01T16:46:56.445Z,101433.47
2022-09-01T16:49:33.758Z,101422.13
2022-09-01T16:52:05.510Z,101430.31
2022-09-01T16:54:43.762Z,101428.88
2022-09-01T16:57:21.277Z,101429.16
2022-09-01T16:59:55.793Z,101436.53
2022-09-01T17:02:49.608Z,101434.06
2022-09-01T17:05:24.028Z,101434.53
2022-09-01T17:07:54.448Z,101437.56
2022-09-01T17:10:34.430Z,101436.75
2022-09-01T17:13:17.176Z,101441.91
2022-09-01T17:15:53.725Z,101441.34
2022-09-01T17:18:30.312Z,101439.41
2022-09-01T17:21:03.859Z,101439.59
2022-09-01T17:23:37.952Z,101446.78
2022-09-01T17:26:13.348Z,101445.81
2022-09-01T17:28:46.489Z,101441.13
2022-09-01T17:31:26.487Z,101443.56
2022-09-01T17:34:06.259Z,101450.13
2022-09-01T17:36:46.871Z,101447.44
2022-09-01T17:39:28.976Z,101452.13
2022-09-01T17:42:01.087Z,101451.78
2022-09-01T17:44:41.098Z,101454.56
2022-09-01T17:47:20.718Z,101449.31
2022-09-01T17:49:54.508Z,101461.91
2022-09-01T17:52:37.292Z,101457.22
2022-09-01T17:55:10.322Z,101451.97
2022-09-01T17:57:43.589Z,101454.16
2022-09-01T18:00:23.021Z,101467.00
2022-09-01T18:03:49.195Z,101464.75
2022-09-01T18:06:26.527Z,101460.47
2022-09-01T18:08:58.119Z,101456.56
2022-09-01T18:11:36.524Z,101464.00
2022-09-01T18:14:08.808Z,101467.50
2022-09-01T18:16:44.204Z,101464.66
2022-09-01T18:19:19.741Z,101465.50
2022-09-01T18:21:53.302Z,101463.00
2022-09-01T18:24:24.257Z,101457.25
2022-09-01T18:26:53.257Z,101460.16
2022-09-01T18:29:23.037Z,101471.63
2022-09-01T18:32:19.879Z,101474.16
2022-09-01T18:35:03.334Z,101482.16
2022-09-01T18:37:40.132Z,101485.19
2022-09-01T18:40:18.118Z,101485.41
2022-09-01T18:42:54.044Z,101485.19
2022-09-01T18:45:32.737Z,101485.56
2022-09-01T18:48:07.513Z,101492.16
2022-09-01T18:50:45.582Z,101501.50
2022-09-01T18:53:27.694Z,101496.16
2022-09-01T18:56:02.662Z,101493.25
2022-09-01T18:58:44.331Z,101489.66
2022-09-01T19:01:15.551Z,101492.22
2022-09-01T19:03:51.545Z,101489.91
2022-09-01T19:06:31.769Z,101490.16
2022-09-01T19:09:08.489Z,101482.41
2022-09-01T19:11:46.426Z,101489.22
2022-09-01T19:17:16.426Z,101487.56
2022-09-01T19:19:49.702Z,101487.81
2022-09-01T19:22:22.541Z,101483.88
2022-09-01T19:24:54.521Z,101491.53
2022-09-01T19:27:25.817Z,101489.63
2022-09-01T19:29:56.963Z,101487.34
2022-09-01T19:32:29.259Z,101490.00
2022-09-01T19:35:00.271Z,101496.50
2022-09-01T19:37:29.065Z,101488.97
2022-09-01T19:39:57.698Z,101496.28
2022-09-01T19:42:29.317Z,101493.16
2022-09-01T19:45:06.940Z,101498.69
2022-09-01T19:47:41.104Z,101499.19
2022-09-01T19:50:17.582Z,101504.06
2022-09-01T19:52:55.255Z,101503.25
2022-09-01T19:55:31.477Z,101504.56
2022-09-01T19:58:04.104Z,101507.81
2022-09-01T20:00:41.844Z,101505.38
2022-09-01T20:03:13.167Z,101510.06
2022-09-01T20:05:42.705Z,101498.81
2022-09-01T20:08:19.639Z,101508.50
2022-09-01T20:10:57.027Z,101504.69
2022-09-01T20:13:40.699Z,101504.19
2022-09-01T20:16:20.357Z,101505.38
2022-09-01T20:18:53.447Z,101509.69
2022-09-01T20:21:22.129Z,101505.16
2022-09-01T20:23:56.763Z,101506.84
2022-09-01T20:26:31.914Z,101509.56
2022-09-01T20:29:04.239Z,101510.06
2022-09-01T20:31:34.833Z,101513.84
2022-09-01T20:34:08.752Z,101509.44
2022-09-01T20:36:42.342Z,101513.72
2022-09-01T20:39:35.875Z,101522.22
2022-09-01T20:42:08.925Z,101514.78
2022-09-01T20:44:44.381Z,101519.19
2022-09-01T20:47:13.012Z,101520.72
2022-09-01T20:49:42.353Z,101524.69
2022-09-01T20:52:17.152Z,101520.16
2022-09-01T20:54:55.302Z,101519.53
2022-09-01T20:57:35.513Z,101509.72
2022-09-01T21:00:08.183Z,101521.91
2022-09-01T21:02:52.598Z,101518.09
2022-09-01T21:05:34.080Z,101517.75
2022-09-01T21:08:31.477Z,101517.00
2022-09-01T21:11:11.923Z,101520.81
2022-09-01T21:13:54.155Z,101523.31
2022-09-01T21:16:31.274Z,101520.66
2022-09-01T21:19:07.351Z,101513.97
2022-09-01T21:21:40.386Z,101515.91
2022-09-01T21:24:08.416Z,101507.13
2022-09-01T21:26:38.609Z,101513.38
2022-09-01T21:29:19.168Z,101514.66
2022-09-01T21:31:47.560Z,101513.81
2022-09-01T21:36:56.660Z,101512.09
2022-09-01T21:39:24.291Z,101509.34
2022-09-01T21:41:53.448Z,101511.72
2022-09-01T21:44:22.225Z,101512.78
2022-09-01T21:46:50.377Z,101514.63
2022-09-01T21:49:20.058Z,101523.03
2022-09-01T21:51:47.650Z,101514.47
2022-09-01T21:54:15.409Z,101516.59
2022-09-01T21:56:43.583Z,101522.16
2022-09-01T21:59:17.063Z,101521.13
2022-09-01T22:01:45.553Z,101527.75
2022-09-01T22:04:15.233Z,101525.09
2022-09-01T22:06:45.227Z,101520.25
2022-09-01T22:09:20.980Z,101518.97
2022-09-01T22:11:51.641Z,101527.19
2022-09-01T22:14:21.971Z,101519.84
2022-09-01T22:16:52.778Z,101520.84
2022-09-01T22:19:21.915Z,101516.88
2022-09-01T22:21:50.587Z,101519.03
2022-09-01T22:24:20.867Z,101520.34
2022-09-01T22:26:49.822Z,101518.81
2022-09-01T22:29:18.619Z,101518.44
2022-09-01T22:31:47.884Z,101515.06
2022-09-01T22:34:18.530Z,101507.84
2022-09-01T22:36:49.377Z,101513.31
2022-09-01T22:39:19.338Z,101517.97
2022-09-01T22:41:52.351Z,101505.97
2022-09-01T22:44:20.585Z,101516.41
2022-09-01T22:46:50.191Z,101520.06
2022-09-01T22:49:20.540Z,101518.97
2022-09-01T22:51:49.023Z,101525.72
2022-09-01T22:54:19.730Z,101520.25
2022-09-01T22:56:52.478Z,101518.69
2022-09-01T22:59:22.524Z,101507.28
2022-09-01T23:01:53.202Z,101512.75
2022-09-01T23:04:21.278Z,101514.88
2022-09-01T23:06:54.578Z,101511.38
2022-09-01T23:09:22.635Z,101512.34
2022-09-01T23:11:50.911Z,101505.59
2022-09-01T23:14:20.420Z,101507.84
2022-09-01T23:16:51.279Z,101504.78
2022-09-01T23:19:22.219Z,101505.06
2022-09-01T23:21:50.985Z,101502.59
2022-09-01T23:24:19.931Z,101499.84
2022-09-01T23:26:47.975Z,101507.34
2022-09-01T23:29:15.571Z,101498.91
2022-09-01T23:31:43.813Z,101500.06
2022-09-01T23:34:13.170Z,101501.13
2022-09-01T23:36:42.346Z,101504.59
2022-09-01T23:39:10.026Z,101510.97
2022-09-01T23:41:38.211Z,101499.13
2022-09-01T23:44:09.338Z,101511.84
2022-09-01T23:46:39.933Z,101507.69
2022-09-01T23:49:07.978Z,101500.22
2022-09-01T23:51:36.118Z,101501.44
2022-09-01T23:54:05.567Z,101496.25
2022-09-01T23:56:33.595Z,101494.09
2022-09-01T23:59:01.865Z,101489.81
